createdAt,value
2022-11-14T00:01:29.914Z,57.90
2022-11-14T00:04:16.153Z,58.20
2022-11-14T00:07:02.484Z,58.20
2022-11-14T00:09:49.265Z,62.80
2022-11-14T00:12:35.702Z,57.80
2022-11-14T00:15:22.074Z,58.10
2022-11-14T00:18:08.655Z,58.00
2022-11-14T00:20:54.806Z,58.00
2022-11-14T00:23:41.311Z,57.80
2022-11-14T00:26:27.798Z,56.40
2022-11-14T00:29:15.280Z,62.20
2022-11-14T00:32:01.386Z,57.60
2022-11-14T00:34:48.787Z,56.10
2022-11-14T00:37:35.655Z,54.20
2022-11-14T00:40:22.411Z,58.60
2022-11-14T00:43:08.667Z,53.80
2022-11-14T00:45:55.311Z,57.40
2022-11-14T00:48:41.860Z,56.40
2022-11-14T00:51:28.189Z,58.90
2022-11-14T00:54:14.714Z,59.30
2022-11-14T00:57:01.338Z,53.70
2022-11-14T00:59:47.755Z,58.50
2022-11-14T01:02:34.215Z,57.10
2022-11-14T01:05:20.740Z,58.30
2022-11-14T01:08:06.994Z,53.20
2022-11-14T01:10:53.224Z,58.50
2022-11-14T01:13:40.070Z,60.60
2022-11-14T01:16:26.290Z,58.20
2022-11-14T01:19:12.811Z,59.40
2022-11-14T01:22:03.121Z,59.60
2022-11-14T01:24:52.531Z,62.50
2022-11-14T01:27:38.652Z,58.80
2022-11-14T01:30:25.071Z,59.80
2022-11-14T01:33:12.010Z,53.90
2022-11-14T01:35:59.904Z,52.40
2022-11-14T01:38:46.844Z,56.60
2022-11-14T01:41:33.263Z,52.50
2022-11-14T01:44:42.330Z,53.70
2022-11-14T01:47:32.566Z,53.00
2022-11-14T01:50:18.983Z,55.40
2022-11-14T01:53:05.592Z,56.30
2022-11-14T01:55:52.682Z,58.80
2022-11-14T01:58:42.272Z,60.80
2022-11-14T02:01:31.398Z,57.50
2022-11-14T02:04:21.384Z,59.70
2022-11-14T02:07:08.328Z,51.50
2022-11-14T02:09:55.122Z,56.00
2022-11-14T02:12:41.548Z,58.30
2022-11-14T02:15:27.996Z,55.60
2022-11-14T02:18:14.496Z,59.40
2022-11-14T02:21:00.937Z,60.40
2022-11-14T02:23:47.400Z,56.50
2022-11-14T02:26:36.731Z,60.70
2022-11-14T02:29:23.569Z,58.40
2022-11-14T02:32:11.022Z,62.20
2022-11-14T02:34:57.604Z,60.50
2022-11-14T02:37:44.087Z,62.80
2022-11-14T02:40:30.532Z,58.30
2022-11-14T02:43:16.970Z,55.50
2022-11-14T02:46:05.815Z,59.60
2022-11-14T02:48:52.411Z,56.60
2022-11-14T02:51:38.796Z,61.70
2022-11-14T02:54:25.431Z,61.90
2022-11-14T02:57:11.847Z,61.80
2022-11-14T02:59:58.033Z,66.80
2022-11-14T03:02:44.468Z,64.20
2022-11-14T03:05:30.866Z,68.50
2022-11-14T03:08:17.410Z,64.40
2022-11-14T03:11:05.887Z,63.60
2022-11-14T03:13:52.043Z,67.60
2022-11-14T03:16:38.261Z,63.30
2022-11-14T03:19:24.843Z,58.00
2022-11-14T03:22:11.000Z,59.40
2022-11-14T03:24:57.501Z,60.50
2022-11-14T03:27:44.056Z,61.50
2022-11-14T03:30:31.344Z,56.80
2022-11-14T03:33:17.782Z,61.00
2022-11-14T03:36:05.795Z,58.80
2022-11-14T03:38:52.023Z,63.10
2022-11-14T03:41:38.221Z,62.70
2022-11-14T03:44:24.751Z,62.40
2022-11-14T03:47:10.999Z,63.90
2022-11-14T03:49:57.253Z,63.70
2022-11-14T03:52:43.692Z,61.30
2022-11-14T03:55:30.115Z,66.20
2022-11-14T03:58:16.549Z,63.00
2022-11-14T04:01:04.004Z,62.10
2022-11-14T04:03:50.268Z,59.50
2022-11-14T04:06:36.803Z,65.00
2022-11-14T04:09:23.237Z,61.90
2022-11-14T04:12:14.441Z,62.30
2022-11-14T04:15:02.212Z,65.80
2022-11-14T04:17:48.388Z,64.70
2022-11-14T04:20:35.065Z,62.20
2022-11-14T04:23:21.249Z,67.10
2022-11-14T04:26:07.600Z,64.30
2022-11-14T04:28:54.036Z,63.80
2022-11-14T04:31:40.456Z,65.90
2022-11-14T04:34:27.051Z,64.40
2022-11-14T04:37:13.571Z,67.10
2022-11-14T04:40:02.536Z,62.90
2022-11-14T04:42:48.800Z,64.40
2022-11-14T04:45:35.015Z,65.70
2022-11-14T04:48:21.432Z,63.50
2022-11-14T04:51:07.641Z,64.10
2022-11-14T04:53:53.758Z,61.70
2022-11-14T04:56:40.371Z,60.70
2022-11-14T04:59:27.054Z,60.70
2022-11-14T05:02:13.105Z,58.50
2022-11-14T05:04:59.590Z,57.10
2022-11-14T05:07:46.093Z,62.30
2022-11-14T05:10:32.486Z,60.80
2022-11-14T05:13:18.821Z,62.30
2022-11-14T05:16:05.644Z,64.80
2022-11-14T05:18:53.637Z,74.60
2022-11-14T05:21:39.795Z,77.10
2022-11-14T05:24:27.274Z,71.10
2022-11-14T05:27:13.796Z,64.90
2022-11-14T05:29:59.939Z,64.20
2022-11-14T05:32:46.380Z,58.60
2022-11-14T05:35:32.605Z,56.50
2022-11-14T05:38:19.025Z,58.80
2022-11-14T05:41:10.405Z,57.60
2022-11-14T05:43:57.102Z,63.40
2022-11-14T05:46:43.465Z,62.90
2022-11-14T05:49:29.946Z,61.80
2022-11-14T05:52:16.456Z,61.00
2022-11-14T05:55:03.169Z,59.80
2022-11-14T05:57:49.206Z,56.90
2022-11-14T06:00:42.379Z,59.10
2022-11-14T06:03:35.120Z,67.00
2022-11-14T06:06:21.998Z,69.20
2022-11-14T06:09:08.160Z,79.30
2022-11-14T06:11:54.503Z,76.40
2022-11-14T06:14:41.008Z,82.10
2022-11-14T06:17:27.405Z,78.00
2022-11-14T06:20:15.710Z,77.70
2022-11-14T06:23:01.820Z,72.70
2022-11-14T06:25:48.176Z,71.60
2022-11-14T06:28:34.567Z,76.40
2022-11-14T06:31:24.451Z,76.00
2022-11-14T06:34:12.688Z,80.90
2022-11-14T06:36:58.906Z,76.60
2022-11-14T06:39:45.038Z,76.40
2022-11-14T06:42:31.674Z,71.30
2022-11-14T06:45:17.791Z,77.60
2022-11-14T06:48:04.209Z,67.50
2022-11-14T06:50:55.440Z,73.70
2022-11-14T06:53:42.339Z,61.70
2022-11-14T06:56:29.333Z,69.00
2022-11-14T06:59:15.536Z,74.40
2022-11-14T07:02:02.043Z,68.80
2022-11-14T07:04:48.324Z,82.80
2022-11-14T07:07:34.760Z,80.80
2022-11-14T07:10:21.167Z,86.30
2022-11-14T07:13:09.561Z,84.50
2022-11-14T07:15:55.864Z,86.90
2022-11-14T07:18:42.323Z,89.40
2022-11-14T07:21:30.016Z,102.80
2022-11-14T07:24:16.449Z,86.20
2022-11-14T07:27:08.641Z,94.60
2022-11-14T07:29:54.870Z,95.70
2022-11-14T07:32:41.327Z,90.90
2022-11-14T07:35:27.962Z,84.80
2022-11-14T07:38:14.222Z,87.10
2022-11-14T07:41:02.765Z,88.30
2022-11-14T07:43:49.099Z,91.50
2022-11-14T07:46:35.699Z,92.30
2022-11-14T07:49:22.070Z,104.50
2022-11-14T07:52:08.592Z,96.90
2022-11-14T07:54:55.321Z,85.60
2022-11-14T07:57:46.446Z,88.40
2022-11-14T08:00:35.650Z,89.60
2022-11-14T08:03:21.628Z,87.60
2022-11-14T08:06:10.203Z,82.10
2022-11-14T08:08:56.460Z,85.80
2022-11-14T08:11:48.540Z,88.90
2022-11-14T08:14:35.038Z,87.80
2022-11-14T08:17:22.275Z,92.80
2022-11-14T08:20:11.204Z,86.10
2022-11-14T08:23:09.966Z,92.90
2022-11-14T08:25:58.784Z,94.20
2022-11-14T08:28:44.939Z,84.70
2022-11-14T08:31:31.544Z,74.30
2022-11-14T08:34:18.087Z,75.60
2022-11-14T08:37:05.294Z,75.20
2022-11-14T08:39:51.459Z,73.40
2022-11-14T08:42:38.155Z,75.90
2022-11-14T08:45:24.259Z,86.30
2022-11-14T08:48:11.443Z,86.90
2022-11-14T08:51:01.881Z,91.50
2022-11-14T08:53:48.107Z,94.20
2022-11-14T08:56:34.533Z,88.30
2022-11-14T08:59:20.864Z,89.90
2022-11-14T09:02:11.294Z,87.10
2022-11-14T09:04:57.830Z,85.80
2022-11-14T09:07:44.135Z,77.30
2022-11-14T09:10:30.845Z,81.20
2022-11-14T09:13:17.558Z,79.40
2022-11-14T09:16:04.241Z,76.70
2022-11-14T09:18:50.423Z,76.00
2022-11-14T09:21:36.823Z,60.30
2022-11-14T09:24:23.225Z,51.60
2022-11-14T09:27:09.589Z,58.30
2022-11-14T09:29:56.039Z,61.90
2022-11-14T09:32:42.378Z,58.40
2022-11-14T09:35:29.755Z,61.00
2022-11-14T09:38:15.894Z,68.10
2022-11-14T09:41:13.094Z,67.00
2022-11-14T09:44:38.906Z,67.90
2022-11-14T09:47:30.875Z,66.70
2022-11-14T09:50:26.552Z,71.10
2022-11-14T09:53:34.641Z,78.30
2022-11-14T09:56:25.746Z,71.80
2022-11-14T09:59:13.661Z,75.80
2022-11-14T10:02:22.570Z,83.40
2022-11-14T10:05:35.379Z,88.40
2022-11-14T10:08:31.914Z,90.50
2022-11-14T10:11:38.611Z,77.40
2022-11-14T10:14:59.999Z,80.10
2022-11-14T10:17:57.534Z,82.10
2022-11-14T10:21:19.028Z,71.90
2022-11-14T10:24:30.007Z,79.80
2022-11-14T10:27:23.619Z,70.80
2022-11-14T10:30:11.560Z,71.70
2022-11-14T10:33:02.937Z,69.90
2022-11-14T10:36:00.025Z,68.90
2022-11-14T10:39:03.893Z,65.80
2022-11-14T10:41:59.776Z,67.50
2022-11-14T10:45:03.558Z,69.30
2022-11-14T10:47:54.774Z,71.70
2022-11-14T10:50:48.004Z,76.70
2022-11-14T10:53:56.120Z,72.40
2022-11-14T10:56:53.660Z,80.60
2022-11-14T10:59:39.880Z,90.00
2022-11-14T11:02:26.218Z,73.60
2022-11-14T11:05:16.539Z,78.70
2022-11-14T11:08:42.697Z,78.00
2022-11-14T11:11:30.132Z,84.40
2022-11-14T11:14:19.073Z,77.40
2022-11-14T11:17:11.607Z,82.70
2022-11-14T11:20:34.696Z,84.50
2022-11-14T11:23:30.018Z,79.00
2022-11-14T11:26:19.594Z,78.70
2022-11-14T11:29:12.077Z,74.60
2022-11-14T11:31:59.817Z,83.20
2022-11-14T11:34:46.271Z,76.40
2022-11-14T11:37:42.524Z,75.10
2022-11-14T11:40:29.857Z,80.00
2022-11-14T11:43:38.873Z,86.30
2022-11-14T11:46:33.673Z,80.70
2022-11-14T11:49:34.820Z,72.20
2022-11-14T11:52:30.042Z,69.50
2022-11-14T11:55:18.800Z,79.00
2022-11-14T11:58:23.736Z,81.50
2022-11-14T12:01:11.933Z,78.40
2022-11-14T12:04:00.466Z,78.80
2022-11-14T12:06:54.760Z,72.70
2022-11-14T12:13:10.681Z,74.00
2022-11-14T12:16:13.082Z,80.20
2022-11-14T12:19:11.896Z,77.60
2022-11-14T12:22:35.688Z,76.60
2022-11-14T12:25:37.180Z,74.60
2022-11-14T12:28:49.985Z,78.60
2022-11-14T12:31:37.734Z,75.70
2022-11-14T12:34:27.589Z,80.30
2022-11-14T12:37:55.435Z,81.30
2022-11-14T12:40:51.116Z,80.50
2022-11-14T12:43:40.212Z,81.60
2022-11-14T12:46:26.525Z,85.10
2022-11-14T12:49:47.324Z,79.10
2022-11-14T12:52:45.568Z,78.50
2022-11-14T12:55:31.641Z,72.60
2022-11-14T12:58:27.103Z,73.20
2022-11-14T13:01:28.310Z,76.30
2022-11-14T13:04:20.458Z,72.70
2022-11-14T13:07:29.905Z,74.00
2022-11-14T13:10:37.881Z,76.70
2022-11-14T13:13:43.313Z,71.30
2022-11-14T13:16:49.735Z,67.60
2022-11-14T13:20:04.499Z,66.40
2022-11-14T13:22:51.034Z,73.20
2022-11-14T13:25:37.607Z,74.30
2022-11-14T13:28:36.039Z,69.20
2022-11-14T13:31:44.542Z,61.40
2022-11-14T13:35:13.268Z,62.00
2022-11-14T13:38:14.225Z,66.20
2022-11-14T13:41:13.502Z,62.40
2022-11-14T13:44:38.270Z,63.40
2022-11-14T13:47:55.475Z,65.60
2022-11-14T13:50:43.131Z,65.40
2022-11-14T13:53:31.197Z,65.00
2022-11-14T13:56:23.622Z,60.10
2022-11-14T13:59:43.958Z,61.50
2022-11-14T14:02:33.177Z,62.40
2022-11-14T14:05:29.866Z,63.00
2022-11-14T14:08:31.875Z,66.20
2022-11-14T14:11:30.512Z,67.10
2022-11-14T14:14:34.658Z,71.40
2022-11-14T14:17:43.382Z,65.70
2022-11-14T14:21:11.627Z,64.50
2022-11-14T14:24:19.255Z,68.80
2022-11-14T14:27:15.834Z,65.50
2022-11-14T14:30:13.691Z,69.70
2022-11-14T14:33:07.470Z,67.90
2022-11-14T14:35:54.402Z,68.30
2022-11-14T14:38:40.557Z,61.70
2022-11-14T14:41:31.279Z,65.60
2022-11-14T14:44:38.536Z,66.10
2022-11-14T14:47:28.250Z,61.90
2022-11-14T14:50:21.370Z,63.40
2022-11-14T14:53:08.166Z,63.80
2022-11-14T14:56:03.191Z,65.70
2022-11-14T14:58:49.404Z,66.40
2022-11-14T15:01:36.018Z,64.80
2022-11-14T15:04:25.376Z,67.60
2022-11-14T15:07:24.005Z,67.10
2022-11-14T15:10:21.163Z,68.10
2022-11-14T15:13:11.393Z,69.90
2022-11-14T15:15:58.357Z,63.20
2022-11-14T15:18:45.017Z,67.90
2022-11-14T15:21:31.351Z,72.40
2022-11-14T15:24:23.059Z,77.30
2022-11-14T15:27:19.882Z,83.00
2022-11-14T15:30:19.463Z,74.30
2022-11-14T15:33:24.241Z,81.80
2022-11-14T15:36:11.738Z,78.90
2022-11-14T15:39:27.029Z,72.20
2022-11-14T15:42:31.885Z,70.50
2022-11-14T15:45:41.314Z,75.10
2022-11-14T15:48:27.756Z,73.70
2022-11-14T15:51:14.163Z,74.90
2022-11-14T15:54:00.533Z,73.40
2022-11-14T15:56:47.032Z,73.80
2022-11-14T15:59:34.730Z,70.70
2022-11-14T16:02:24.141Z,69.70
2022-11-14T16:05:13.923Z,71.90
2022-11-14T16:08:00.081Z,71.70
2022-11-14T16:10:46.605Z,69.10
2022-11-14T16:13:33.508Z,70.00
2022-11-14T16:16:20.037Z,70.80
2022-11-14T16:19:07.636Z,68.70
2022-11-14T16:21:54.030Z,69.50
2022-11-14T16:24:40.247Z,67.20
2022-11-14T16:27:26.957Z,65.50
2022-11-14T16:30:15.283Z,67.50
2022-11-14T16:33:01.653Z,70.40
2022-11-14T16:35:48.082Z,71.00
2022-11-14T16:38:34.407Z,79.40
2022-11-14T16:41:20.860Z,73.40
2022-11-14T16:44:13.159Z,70.30
2022-11-14T16:46:59.290Z,75.40
2022-11-14T16:49:45.626Z,73.10
2022-11-14T16:52:32.315Z,71.50
2022-11-14T16:55:18.698Z,70.50
2022-11-14T16:58:05.055Z,71.60
2022-11-14T17:00:51.357Z,68.60
2022-11-14T17:03:37.583Z,66.80
2022-11-14T17:06:24.132Z,72.70
2022-11-14T17:09:12.127Z,76.90
2022-11-14T17:11:58.711Z,72.50
2022-11-14T17:14:44.811Z,74.10
2022-11-14T17:17:31.488Z,69.50
2022-11-14T17:20:18.097Z,71.60
2022-11-14T17:23:04.483Z,72.60
2022-11-14T17:25:51.044Z,73.90
2022-11-14T17:28:38.641Z,73.00
2022-11-14T17:31:24.891Z,73.90
2022-11-14T17:34:11.476Z,73.70
2022-11-14T17:36:58.263Z,75.00
2022-11-14T17:39:44.504Z,76.20
2022-11-14T17:42:30.624Z,76.90
2022-11-14T17:45:17.059Z,76.30
2022-11-14T17:48:03.693Z,79.50
2022-11-14T17:50:50.237Z,80.10
2022-11-14T17:53:37.277Z,75.30
2022-11-14T17:56:26.019Z,76.50
2022-11-14T17:59:12.090Z,76.80
2022-11-14T18:02:00.165Z,78.00
2022-11-14T18:04:47.164Z,80.10
2022-11-14T18:07:33.759Z,83.40
2022-11-14T18:10:20.248Z,87.80
2022-11-14T18:13:06.745Z,85.00
2022-11-14T18:15:53.171Z,87.60
2022-11-14T18:18:40.105Z,88.80
2022-11-14T18:21:26.467Z,93.30
2022-11-14T18:24:14.195Z,99.00
2022-11-14T18:27:00.714Z,101.00
2022-11-14T18:29:47.192Z,98.10
2022-11-14T18:32:33.511Z,110.90
2022-11-14T18:35:20.068Z,105.90
2022-11-14T18:38:06.613Z,118.10
2022-11-14T18:40:57.286Z,108.00
2022-11-14T18:43:45.195Z,103.90
2022-11-14T18:46:36.890Z,101.90
2022-11-14T18:49:25.235Z,101.00
2022-11-14T18:52:17.201Z,122.60
2022-11-14T18:55:05.366Z,124.60
2022-11-14T18:57:52.280Z,116.10
2022-11-14T19:00:38.506Z,125.90
2022-11-14T19:03:25.086Z,133.20
2022-11-14T19:06:12.961Z,135.90
2022-11-14T19:09:11.527Z,135.50
2022-11-14T19:12:16.761Z,133.20
2022-11-14T19:15:03.659Z,132.60
2022-11-14T19:17:50.183Z,134.00
2022-11-14T19:20:36.496Z,136.10
2022-11-14T19:23:22.741Z,140.40
2022-11-14T19:26:09.202Z,142.50
2022-11-14T19:28:56.121Z,143.20
2022-11-14T19:31:43.018Z,140.90
2022-11-14T19:34:29.490Z,143.10
2022-11-14T19:37:15.740Z,142.40
2022-11-14T19:40:02.187Z,137.80
2022-11-14T19:42:53.436Z,126.00
2022-11-14T19:45:39.504Z,123.50
2022-11-14T19:48:25.874Z,126.70
2022-11-14T19:51:14.483Z,114.90
2022-11-14T19:54:02.135Z,125.90
2022-11-14T19:56:48.898Z,148.20
2022-11-14T19:59:35.000Z,124.70
2022-11-14T20:02:21.823Z,129.00
2022-11-14T20:05:08.562Z,133.50
2022-11-14T20:07:55.055Z,125.60
2022-11-14T20:10:47.838Z,125.70
2022-11-14T20:13:39.755Z,123.10
2022-11-14T20:16:28.145Z,126.20
2022-11-14T20:19:14.838Z,132.20
2022-11-14T20:22:01.483Z,123.50
2022-11-14T20:24:47.944Z,123.20
2022-11-14T20:27:34.528Z,124.50
2022-11-14T20:30:21.294Z,132.00
2022-11-14T20:33:08.260Z,132.00
2022-11-14T20:35:55.021Z,138.70
2022-11-14T20:38:41.836Z,132.40
2022-11-14T20:41:28.039Z,144.30
2022-11-14T20:44:14.726Z,141.60
2022-11-14T20:47:00.920Z,138.20
2022-11-14T20:49:47.705Z,146.10
2022-11-14T20:52:35.365Z,144.60
2022-11-14T20:55:21.981Z,149.80
2022-11-14T20:58:08.333Z,145.80
2022-11-14T21:00:55.137Z,139.40
2022-11-14T21:03:41.919Z,147.50
2022-11-14T21:06:28.473Z,142.40
2022-11-14T21:09:14.907Z,142.60
2022-11-14T21:12:01.387Z,143.20
2022-11-14T21:14:47.827Z,131.60
2022-11-14T21:17:34.222Z,132.30
2022-11-14T21:20:20.662Z,130.00
2022-11-14T21:23:07.023Z,129.60
2022-11-14T21:26:07.864Z,128.10
2022-11-14T21:28:56.819Z,118.60
2022-11-14T21:31:44.812Z,113.50
2022-11-14T21:34:31.173Z,110.50
2022-11-14T21:37:17.787Z,113.50
2022-11-14T21:40:04.576Z,110.60
2022-11-14T21:42:51.043Z,109.40
2022-11-14T21:45:37.541Z,111.70
2022-11-14T21:48:24.201Z,116.70
2022-11-14T21:51:17.319Z,118.70
2022-11-14T21:54:03.815Z,124.80
2022-11-14T21:56:50.360Z,123.30
2022-11-14T21:59:36.808Z,119.20
2022-11-14T22:02:41.752Z,119.40
2022-11-14T22:05:28.401Z,112.90
2022-11-14T22:08:15.934Z,110.70
2022-11-14T22:11:02.343Z,111.60
2022-11-14T22:13:49.011Z,108.80
2022-11-14T22:16:35.299Z,115.80
2022-11-14T22:19:21.802Z,116.70
2022-11-14T22:22:08.037Z,112.20
2022-11-14T22:24:54.480Z,110.80
2022-11-14T22:27:41.044Z,118.30
2022-11-14T22:30:27.577Z,110.30
2022-11-14T22:33:13.869Z,112.60
2022-11-14T22:36:02.366Z,107.00
2022-11-14T22:38:49.527Z,109.60
2022-11-14T22:41:35.682Z,109.80
2022-11-14T22:44:22.152Z,123.00
2022-11-14T22:47:08.788Z,123.50
2022-11-14T22:49:55.012Z,123.20
2022-11-14T22:52:41.285Z,132.80
2022-11-14T22:55:27.862Z,123.10
2022-11-14T22:58:14.285Z,131.70
2022-11-14T23:01:01.402Z,129.90
2022-11-14T23:03:48.800Z,122.60
2022-11-14T23:06:35.175Z,127.30
2022-11-14T23:09:21.578Z,127.20
2022-11-14T23:12:08.115Z,131.40
2022-11-14T23:14:54.508Z,133.90
2022-11-14T23:17:41.117Z,135.30
2022-11-14T23:20:28.415Z,129.20
2022-11-14T23:23:15.880Z,131.80
2022-11-14T23:26:04.312Z,120.90
2022-11-14T23:28:51.007Z,120.40
2022-11-14T23:31:37.303Z,122.40
2022-11-14T23:34:23.720Z,126.40
2022-11-14T23:37:10.171Z,127.60
2022-11-14T23:39:56.741Z,122.90
2022-11-14T23:42:43.371Z,121.40
2022-11-14T23:45:29.676Z,113.90
2022-11-14T23:48:17.171Z,116.20
2022-11-14T23:51:03.644Z,122.70
2022-11-14T23:53:50.672Z,130.30
2022-11-14T23:56:36.920Z,121.00
2022-11-14T23:59:23.239Z,116.20
